Terminal Aerodrome Forecast
Issued by NWS Portland, ME

Home | Current Version | Previous Version | Text Only | Print | Product List | Glossary On
Versions: 1 2 3 4 5 6 7 8 9 10 11 12 13 14 15 16 17 18
766
FTUS41 KGYX 221730
TAFCON
TAF
KCON 221730Z 2218/2318 04005KT 4SM -SN OVC012
      TEMPO 2218/2222 2SM -SN BKN007 OVC012
     FM222200 06005KT 3SM -FZRAPL OVC007
     FM230300 VRB04KT 3SM -FZDZ BR BKN004 OVC007
     FM231500 12004KT 3SM -RA OVC007 WS015/19040KT=

USA.gov is the U.S. government's official web portal to all federal, state and local government web resources and services.